Terminal Aerodrome Forecast
Issued by NWS

Home | Current Version | Previous Version | Text Only | Print | Product List | Glossary On
Versions: 1 2 3 4 5 6 7 8 9 10 11 12 13 14 15
000
FTUS44 KLZK 171730
TAFHRO
TAF
KHRO 171730Z 1718/1818 VRB04KT P6SM OVC015
     FM172100 28008KT P6SM BKN100
     FM180300 32003KT P6SM BKN250
     FM181200 14005KT P6SM SCT250
      AMD NOT SKED=

USA.gov is the U.S. government's official web portal to all federal, state and local government web resources and services.